Time;durP1;ratioP1;P1;durP2;ratioP2;P2;SDS_P1;SDS_P2;PMS_P1;PMS_P2;Temp;Humidity;BMP_temperature;BMP_pressure;BME280_temperature;BME280_humidity;BME280_pressure;Samples;Min_cycle;Max_cycle;Signal;HPM_P1;HPM_P2
2021/09/08 17:22:02;;;;;;;19.23;5.38;;;24.70;74.40;;;;;;5048151;28;81157;-57
2021/09/08 17:24:28;;;;;;;11.10;4.93;;;24.90;73.40;;;;;;5009942;28;80359;-58
2021/09/08 17:26:54;;;;;;;14.45;5.65;;;24.90;72.70;;;;;;5034327;28;80930;-59
2021/09/08 17:29:20;;;;;;;16.80;5.03;;;24.90;72.30;;;;;;5027510;28;83130;-58
2021/09/08 17:31:45;;;;;;;12.40;4.97;;;24.90;72.30;;;;;;5022624;28;80674;-59
2021/09/08 17:34:11;;;;;;;10.77;4.85;;;24.90;72.20;;;;;;5025447;28;80942;-58
2021/09/08 17:36:37;;;;;;;16.15;5.50;;;24.90;72.60;;;;;;5028705;28;80631;-58
2021/09/08 17:39:04;;;;;;;16.10;4.88;;;24.90;72.40;;;;;;5014598;28;82675;-56
2021/09/08 17:41:39;;;;;;;10.90;5.32;;;24.90;72.60;;;;;;5018586;28;82892;-59
2021/09/08 17:44:04;;;;;;;13.05;5.07;;;24.90;72.10;;;;;;5026265;28;81282;-58
2021/09/08 17:46:30;;;;;;;10.82;4.93;;;24.90;71.80;;;;;;5034984;28;80704;-59
2021/09/08 17:48:56;;;;;;;15.75;5.18;;;24.90;71.90;;;;;;5026324;28;81328;-57
2021/09/08 17:51:21;;;;;;;12.10;4.80;;;24.90;72.30;;;;;;5012201;28;81312;-58
2021/09/08 17:53:47;;;;;;;9.20;4.22;;;24.80;72.40;;;;;;5018427;28;81152;-59
2021/09/08 17:56:13;;;;;;;12.70;4.40;;;24.90;72.30;;;;;;5015072;28;81131;-56
2021/09/08 17:58:38;;;;;;;8.75;4.70;;;24.90;72.20;;;;;;5016511;28;81785;-58
2021/09/08 18:01:04;;;;;;;10.15;3.92;;;24.90;72.60;;;;;;5015176;28;82914;-56
2021/09/08 18:03:30;;;;;;;13.63;5.78;;;24.90;72.60;;;;;;5022829;28;81565;-56
2021/09/08 18:05:56;;;;;;;9.77;4.80;;;24.90;72.40;;;;;;5020221;28;80993;-57
2021/09/08 18:08:21;;;;;;;29.88;6.70;;;24.90;72.30;;;;;;5019606;28;83620;-57
2021/09/08 18:10:47;;;;;;;12.35;5.90;;;25.00;72.30;;;;;;5012483;28;81306;-60
2021/09/08 18:13:13;;;;;;;8.80;5.38;;;25.00;72.20;;;;;;5017201;28;81096;-58
2021/09/08 18:15:39;;;;;;;9.30;4.85;;;24.80;72.50;;;;;;5014786;28;80650;-59
2021/09/08 18:18:05;;;;;;;11.73;5.50;;;24.70;72.70;;;;;;5015406;28;81155;-59
2021/09/08 18:20:31;;;;;;;7.93;5.00;;;24.60;73.40;;;;;;5009810;28;81848;-59
2021/09/08 18:22:58;;;;;;;9.95;4.28;;;24.50;72.90;;;;;;5019444;28;80860;-55
2021/09/08 18:25:24;;;;;;;9.57;5.18;;;24.50;73.30;;;;;;5011372;28;80871;-58
2021/09/08 18:27:51;;;;;;;7.75;4.05;;;24.50;73.20;;;;;;5014497;28;81251;-56
2021/09/08 18:30:16;;;;;;;13.63;5.18;;;24.50;73.00;;;;;;5011314;28;80670;-57
2021/09/08 18:32:44;;;;;;;18.60;5.03;;;24.50;73.60;;;;;;5003544;28;80583;-58
2021/09/08 18:35:11;;;;;;;7.18;4.57;;;24.50;73.70;;;;;;5005696;28;81138;-56
2021/09/08 18:37:43;;;;;;;8.90;4.97;;;24.40;73.40;;;;;;4999146;28;82867;-55
2021/09/08 18:40:09;;;;;;;12.05;5.05;;;24.30;74.10;;;;;;5000747;28;81558;-55
2021/09/08 18:42:35;;;;;;;12.50;5.30;;;24.30;74.10;;;;;;5004784;28;81676;-58
2021/09/08 18:45:01;;;;;;;12.82;5.35;;;24.40;74.70;;;;;;5003577;28;80895;-59
2021/09/08 18:47:27;;;;;;;11.50;5.55;;;24.30;74.20;;;;;;5007949;28;81642;-58
2021/09/08 18:49:53;;;;;;;9.45;4.82;;;24.40;73.80;;;;;;5007402;28;82292;-59
2021/09/08 18:52:19;;;;;;;9.50;4.90;;;24.40;73.30;;;;;;5005875;28;81631;-58
2021/09/08 18:54:44;;;;;;;8.48;5.15;;;24.40;71.90;;;;;;5003467;28;80961;-56
2021/09/08 18:57:10;;;;;;;8.20;4.97;;;24.40;71.70;;;;;;5006612;28;80969;-59
2021/09/08 18:59:36;;;;;;;7.82;5.05;;;24.30;71.90;;;;;;5007433;28;81940;-57
2021/09/08 19:02:02;;;;;;;6.70;4.55;;;24.30;71.40;;;;;;5004319;28;81200;-59
2021/09/08 19:04:28;;;;;;;8.77;4.82;;;24.30;71.00;;;;;;5004057;28;80936;-58
2021/09/08 19:06:53;;;;;;;9.05;4.93;;;24.20;71.50;;;;;;5008057;28;83674;-58
2021/09/08 19:09:19;;;;;;;13.52;5.05;;;24.20;70.70;;;;;;5006964;28;81403;-54
2021/09/08 19:11:45;;;;;;;9.68;6.22;;;24.10;70.50;;;;;;5007256;28;81613;-59
2021/09/08 19:14:11;;;;;;;9.45;5.70;;;24.00;71.50;;;;;;5014056;28;81192;-56
2021/09/08 19:16:37;;;;;;;10.35;6.13;;;24.00;71.30;;;;;;5007724;28;81807;-58
2021/09/08 19:19:03;;;;;;;8.27;5.22;;;24.00;71.40;;;;;;5001713;28;80808;-55
2021/09/08 19:21:28;;;;;;;10.20;5.18;;;23.90;71.30;;;;;;5013697;28;80511;-59
2021/09/08 19:23:54;;;;;;;9.40;5.50;;;23.80;71.60;;;;;;5013151;28;81208;-55
2021/09/08 19:26:20;;;;;;;10.65;5.82;;;23.90;71.70;;;;;;5013216;28;81017;-58
2021/09/08 19:28:46;;;;;;;15.13;4.80;;;23.90;71.70;;;;;;5008802;28;81575;-55
2021/09/08 19:31:11;;;;;;;8.02;4.90;;;23.80;72.00;;;;;;5026425;28;80487;-60
2021/09/08 19:33:37;;;;;;;12.23;4.72;;;23.90;72.10;;;;;;5011693;28;80903;-61
2021/09/08 19:36:03;;;;;;;10.48;5.28;;;23.90;72.40;;;;;;4999958;28;82121;-58
2021/09/08 19:38:29;;;;;;;11.20;5.50;;;23.90;72.30;;;;;;5002340;28;80657;-59
2021/09/08 19:40:55;;;;;;;10.23;5.47;;;23.80;72.00;;;;;;5009574;28;80502;-57
2021/09/08 19:43:21;;;;;;;17.40;5.30;;;23.80;72.20;;;;;;5005665;28;80941;-60
2021/09/08 19:45:47;;;;;;;12.90;5.30;;;23.70;72.00;;;;;;5008304;28;82511;-58
2021/09/08 19:48:13;;;;;;;9.40;5.03;;;23.70;72.30;;;;;;5014064;28;82474;-62
2021/09/08 19:50:43;;;;;;;9.00;5.05;;;23.70;71.60;;;;;;5009604;28;81004;-59
2021/09/08 19:53:08;;;;;;;8.05;4.47;;;23.70;72.10;;;;;;5006067;28;80898;-57
2021/09/08 19:55:34;;;;;;;6.63;4.07;;;23.70;70.20;;;;;;5009567;28;81995;-61
2021/09/08 19:58:00;;;;;;;10.05;4.30;;;23.60;69.10;;;;;;5009505;28;82165;-59
2021/09/08 20:00:25;;;;;;;7.80;4.47;;;23.60;69.10;;;;;;5008504;28;80746;-61
2021/09/08 20:02:51;;;;;;;8.27;4.07;;;23.60;70.10;;;;;;5007099;28;80565;-59
2021/09/08 20:05:18;;;;;;;9.70;3.92;;;23.60;68.50;;;;;;5007076;28;82054;-57
2021/09/08 20:07:44;;;;;;;5.80;3.72;;;23.70;70.50;;;;;;5002375;28;81462;-61
2021/09/08 20:10:12;;;;;;;6.30;4.00;;;23.70;67.10;;;;;;4996727;28;81788;-58
2021/09/08 20:12:39;;;;;;;9.10;3.50;;;23.70;68.20;;;;;;5009646;28;80743;-59
2021/09/08 20:15:06;;;;;;;9.35;3.33;;;23.70;66.30;;;;;;5005721;28;82912;-58
2021/09/08 20:17:32;;;;;;;8.40;3.50;;;23.70;65.70;;;;;;5004856;28;81131;-59
2021/09/08 20:19:57;;;;;;;9.20;3.70;;;23.70;66.30;;;;;;5006469;28;81022;-60
2021/09/08 20:22:23;;;;;;;5.13;3.40;;;23.70;67.00;;;;;;5005564;28;80565;-58
2021/09/08 20:24:49;;;;;;;5.93;2.80;;;23.80;62.60;;;;;;5009065;28;81984;-59
2021/09/08 20:27:14;;;;;;;5.32;2.80;;;23.70;62.70;;;;;;5003841;28;80717;-60
2021/09/08 20:29:40;;;;;;;8.13;3.17;;;23.70;62.30;;;;;;5006671;28;81436;-60
2021/09/08 20:32:06;;;;;;;6.68;3.03;;;23.80;62.30;;;;;;5002358;28;80645;-59
2021/09/08 20:34:32;;;;;;;5.07;2.83;;;23.80;64.00;;;;;;5005931;28;81888;-59
